KMTJ/MTJ METAR and TAF weather

Enter ICAO airport designator
Station Type Date Time Source
KMTJ METAR 2020/03/31 11:53 UTC NOAA

KMTJ 311153Z AUTO 00000KT 10SM CLR 00/M04 A3023 RMK AO2 SLP217 70011 T00001044 10033 21006 56003


Station Type Date Time Source
KMTJ Decoded METAR 2020/03/31 11:53 UTC NOAA

MONTROSE REGIONAL AIRPORT, CO, United States (KMTJ) 38-30N 107-54W 1750M
Mar 31, 2020 - 07:53 AM EDT / 2020.03.31 1153 UTC
Wind: Calm:0
Visibility: 10 mile(s):0
Sky conditions: clear
Temperature: 32.0 F (0.0 C)
Dew Point: 24.1 F (-4.4 C)
Relative Humidity: 72%
Pressure (altimeter): 30.23 in. Hg (1023 hPa)
Pressure tendency: 0.01 inches (0.3 hPa) lower than three hours ago
ob: KMTJ 311153Z AUTO 00000KT 10SM CLR 00/M04 A3023 RMK AO2 SLP217 70011 T00001044 10033 21006 56003
cycle: 12

Station Type Date Time Source
KMTJ TAF 2020/03/31 12:40 UTC NOAA

TAF KMTJ 311138Z 3112/0112 14006KT P6SM FEW080
FM311600 VRB05KT P6SM FEW090
FM312200 26012G22KT P6SM FEW090
FM010100 23010KT P6SM FEW090
FM010300 16007KT P6SM FEW090 FEW250

Example: see airport list